sensor_id;sensor_type;location;lat;lon;timestamp;P1;durP1;ratioP1;P2;durP2;ratioP2
33022;SDS011;19390;51.460;5.710;2022-09-29T00:02:15;16.10;;;11.38;;
33022;SDS011;19390;51.460;5.710;2022-09-29T00:04:40;17.75;;;13.02;;
33022;SDS011;19390;51.460;5.710;2022-09-29T00:07:06;15.52;;;11.98;;
33022;SDS011;19390;51.460;5.710;2022-09-29T00:09:31;19.13;;;15.30;;
33022;SDS011;19390;51.460;5.710;2022-09-29T00:11:57;19.88;;;14.13;;
33022;SDS011;19390;51.460;5.710;2022-09-29T00:14:23;21.42;;;16.27;;
33022;SDS011;19390;51.460;5.710;2022-09-29T00:16:49;24.20;;;15.70;;
33022;SDS011;19390;51.460;5.710;2022-09-29T00:19:15;22.38;;;14.27;;
33022;SDS011;19390;51.460;5.710;2022-09-29T00:21:40;20.73;;;13.23;;
33022;SDS011;19390;51.460;5.710;2022-09-29T00:24:06;17.77;;;14.07;;
33022;SDS011;19390;51.460;5.710;2022-09-29T00:26:32;23.83;;;14.50;;
33022;SDS011;19390;51.460;5.710;2022-09-29T00:28:57;20.15;;;13.35;;
33022;SDS011;19390;51.460;5.710;2022-09-29T00:31:25;18.30;;;11.50;;
33022;SDS011;19390;51.460;5.710;2022-09-29T00:33:52;16.20;;;11.93;;
33022;SDS011;19390;51.460;5.710;2022-09-29T00:36:18;18.55;;;13.30;;
33022;SDS011;19390;51.460;5.710;2022-09-29T00:38:45;18.42;;;13.07;;
33022;SDS011;19390;51.460;5.710;2022-09-29T00:41:21;16.67;;;13.40;;
33022;SDS011;19390;51.460;5.710;2022-09-29T00:46:31;14.68;;;12.25;;
33022;SDS011;19390;51.460;5.710;2022-09-29T00:49:05;17.58;;;13.05;;
33022;SDS011;19390;51.460;5.710;2022-09-29T00:51:43;15.55;;;11.10;;
33022;SDS011;19390;51.460;5.710;2022-09-29T00:54:12;17.48;;;12.98;;
33022;SDS011;19390;51.460;5.710;2022-09-29T00:56:39;17.23;;;12.38;;
33022;SDS011;19390;51.460;5.710;2022-09-29T00:59:07;14.32;;;11.38;;
33022;SDS011;19390;51.460;5.710;2022-09-29T01:01:36;18.00;;;12.55;;
33022;SDS011;19390;51.460;5.710;2022-09-29T01:04:05;15.05;;;11.30;;
33022;SDS011;19390;51.460;5.710;2022-09-29T01:06:43;13.65;;;11.07;;
33022;SDS011;19390;51.460;5.710;2022-09-29T01:11:40;15.63;;;11.77;;
33022;SDS011;19390;51.460;5.710;2022-09-29T01:14:07;15.48;;;11.85;;
33022;SDS011;19390;51.460;5.710;2022-09-29T01:16:34;18.80;;;11.95;;
33022;SDS011;19390;51.460;5.710;2022-09-29T01:19:02;20.65;;;13.93;;
33022;SDS011;19390;51.460;5.710;2022-09-29T01:21:56;13.65;;;11.15;;
33022;SDS011;19390;51.460;5.710;2022-09-29T01:29:55;17.80;;;13.95;;
33022;SDS011;19390;51.460;5.710;2022-09-29T01:43:26;17.90;;;13.13;;
33022;SDS011;19390;51.460;5.710;2022-09-29T01:46:03;19.23;;;14.18;;
33022;SDS011;19390;51.460;5.710;2022-09-29T02:46:24;25.40;;;18.45;;
33022;SDS011;19390;51.460;5.710;2022-09-29T02:51:45;24.13;;;19.08;;
33022;SDS011;19390;51.460;5.710;2022-09-29T02:57:03;25.55;;;17.98;;
33022;SDS011;19390;51.460;5.710;2022-09-29T02:59:44;23.55;;;17.23;;
33022;SDS011;19390;51.460;5.710;2022-09-29T03:02:39;28.40;;;20.25;;
33022;SDS011;19390;51.460;5.710;2022-09-29T03:05:07;28.73;;;21.02;;
33022;SDS011;19390;51.460;5.710;2022-09-29T03:07:36;26.85;;;19.67;;
33022;SDS011;19390;51.460;5.710;2022-09-29T03:10:02;28.52;;;19.95;;
33022;SDS011;19390;51.460;5.710;2022-09-29T03:12:29;26.20;;;18.73;;
33022;SDS011;19390;51.460;5.710;2022-09-29T03:14:55;30.48;;;21.23;;
33022;SDS011;19390;51.460;5.710;2022-09-29T03:17:21;23.92;;;19.55;;
33022;SDS011;19390;51.460;5.710;2022-09-29T03:19:46;22.80;;;16.83;;
33022;SDS011;19390;51.460;5.710;2022-09-29T03:22:12;24.70;;;19.52;;
33022;SDS011;19390;51.460;5.710;2022-09-29T03:24:38;24.52;;;19.20;;
33022;SDS011;19390;51.460;5.710;2022-09-29T03:27:03;25.35;;;19.23;;
33022;SDS011;19390;51.460;5.710;2022-09-29T03:29:30;29.20;;;21.00;;
33022;SDS011;19390;51.460;5.710;2022-09-29T03:31:57;30.40;;;20.25;;
33022;SDS011;19390;51.460;5.710;2022-09-29T03:34:23;27.92;;;20.10;;
33022;SDS011;19390;51.460;5.710;2022-09-29T04:18:58;40.88;;;26.48;;
33022;SDS011;19390;51.460;5.710;2022-09-29T04:21:24;40.28;;;25.15;;
33022;SDS011;19390;51.460;5.710;2022-09-29T04:23:49;36.47;;;25.50;;
33022;SDS011;19390;51.460;5.710;2022-09-29T04:26:15;42.53;;;26.33;;
33022;SDS011;19390;51.460;5.710;2022-09-29T04:28:41;38.85;;;26.23;;
33022;SDS011;19390;51.460;5.710;2022-09-29T04:31:07;39.90;;;25.85;;
33022;SDS011;19390;51.460;5.710;2022-09-29T04:33:33;34.30;;;22.45;;
33022;SDS011;19390;51.460;5.710;2022-09-29T04:35:59;35.90;;;24.95;;
33022;SDS011;19390;51.460;5.710;2022-09-29T04:38:25;45.10;;;28.17;;
33022;SDS011;19390;51.460;5.710;2022-09-29T04:40:51;35.17;;;26.38;;
33022;SDS011;19390;51.460;5.710;2022-09-29T04:43:20;44.05;;;28.58;;
33022;SDS011;19390;51.460;5.710;2022-09-29T04:45:46;34.85;;;24.30;;
33022;SDS011;19390;51.460;5.710;2022-09-29T04:48:11;38.50;;;25.90;;
33022;SDS011;19390;51.460;5.710;2022-09-29T04:50:37;31.90;;;23.92;;
33022;SDS011;19390;51.460;5.710;2022-09-29T04:53:03;31.40;;;23.23;;
33022;SDS011;19390;51.460;5.710;2022-09-29T04:55:29;37.30;;;26.13;;
33022;SDS011;19390;51.460;5.710;2022-09-29T04:57:55;28.60;;;21.88;;
33022;SDS011;19390;51.460;5.710;2022-09-29T05:00:20;30.67;;;21.67;;
33022;SDS011;19390;51.460;5.710;2022-09-29T05:02:46;32.70;;;23.02;;
33022;SDS011;19390;51.460;5.710;2022-09-29T05:05:12;25.92;;;19.50;;
33022;SDS011;19390;51.460;5.710;2022-09-29T05:07:38;26.00;;;20.02;;
33022;SDS011;19390;51.460;5.710;2022-09-29T05:10:05;28.55;;;22.42;;
33022;SDS011;19390;51.460;5.710;2022-09-29T05:12:32;34.00;;;23.77;;
33022;SDS011;19390;51.460;5.710;2022-09-29T05:14:57;33.47;;;23.05;;
33022;SDS011;19390;51.460;5.710;2022-09-29T05:17:23;43.42;;;26.80;;
33022;SDS011;19390;51.460;5.710;2022-09-29T05:19:48;34.58;;;24.02;;
33022;SDS011;19390;51.460;5.710;2022-09-29T05:22:14;35.92;;;25.95;;
33022;SDS011;19390;51.460;5.710;2022-09-29T05:24:40;34.30;;;24.65;;
33022;SDS011;19390;51.460;5.710;2022-09-29T05:27:06;37.15;;;24.60;;
33022;SDS011;19390;51.460;5.710;2022-09-29T05:29:31;33.00;;;24.92;;
33022;SDS011;19390;51.460;5.710;2022-09-29T05:31:57;31.05;;;21.73;;
33022;SDS011;19390;51.460;5.710;2022-09-29T05:34:22;28.15;;;21.05;;
33022;SDS011;19390;51.460;5.710;2022-09-29T05:36:48;31.17;;;20.58;;
33022;SDS011;19390;51.460;5.710;2022-09-29T05:39:14;34.28;;;23.30;;
33022;SDS011;19390;51.460;5.710;2022-09-29T05:41:41;38.08;;;24.23;;
33022;SDS011;19390;51.460;5.710;2022-09-29T05:44:07;33.03;;;22.85;;
33022;SDS011;19390;51.460;5.710;2022-09-29T05:46:32;34.60;;;23.45;;
33022;SDS011;19390;51.460;5.710;2022-09-29T05:49:00;26.80;;;19.63;;
33022;SDS011;19390;51.460;5.710;2022-09-29T05:51:26;33.03;;;22.65;;
33022;SDS011;19390;51.460;5.710;2022-09-29T05:53:51;33.42;;;23.33;;
33022;SDS011;19390;51.460;5.710;2022-09-29T05:56:19;36.63;;;23.40;;
33022;SDS011;19390;51.460;5.710;2022-09-29T05:58:46;29.40;;;21.27;;
33022;SDS011;19390;51.460;5.710;2022-09-29T06:01:20;45.45;;;27.75;;
33022;SDS011;19390;51.460;5.710;2022-09-29T06:03:47;46.47;;;26.77;;
33022;SDS011;19390;51.460;5.710;2022-09-29T06:06:16;32.03;;;23.83;;
33022;SDS011;19390;51.460;5.710;2022-09-29T06:08:44;47.58;;;32.55;;
33022;SDS011;19390;51.460;5.710;2022-09-29T06:11:14;73.80;;;35.92;;
33022;SDS011;19390;51.460;5.710;2022-09-29T06:13:40;47.42;;;33.80;;
33022;SDS011;19390;51.460;5.710;2022-09-29T06:16:08;72.03;;;36.65;;
33022;SDS011;19390;51.460;5.710;2022-09-29T06:18:35;39.42;;;28.88;;
33022;SDS011;19390;51.460;5.710;2022-09-29T06:21:02;29.55;;;22.38;;
33022;SDS011;19390;51.460;5.710;2022-09-29T06:23:31;30.38;;;21.25;;
33022;SDS011;19390;51.460;5.710;2022-09-29T06:25:57;25.20;;;15.73;;
33022;SDS011;19390;51.460;5.710;2022-09-29T06:28:24;20.73;;;12.95;;
33022;SDS011;19390;51.460;5.710;2022-09-29T06:30:50;18.85;;;11.52;;
33022;SDS011;19390;51.460;5.710;2022-09-29T06:33:16;14.93;;;10.88;;
33022;SDS011;19390;51.460;5.710;2022-09-29T06:35:48;17.13;;;10.63;;
33022;SDS011;19390;51.460;5.710;2022-09-29T06:38:32;12.20;;;9.50;;
33022;SDS011;19390;51.460;5.710;2022-09-29T06:40:58;12.88;;;9.20;;
33022;SDS011;19390;51.460;5.710;2022-09-29T06:43:25;11.70;;;8.98;;
33022;SDS011;19390;51.460;5.710;2022-09-29T06:45:50;11.07;;;8.80;;
33022;SDS011;19390;51.460;5.710;2022-09-29T06:48:16;12.70;;;8.55;;
33022;SDS011;19390;51.460;5.710;2022-09-29T06:50:41;13.88;;;8.43;;
33022;SDS011;19390;51.460;5.710;2022-09-29T06:53:07;11.23;;;8.02;;
33022;SDS011;19390;51.460;5.710;2022-09-29T06:55:33;15.38;;;7.75;;
33022;SDS011;19390;51.460;5.710;2022-09-29T06:57:59;9.80;;;7.60;;
33022;SDS011;19390;51.460;5.710;2022-09-29T07:00:24;10.63;;;8.23;;
33022;SDS011;19390;51.460;5.710;2022-09-29T07:02:50;15.95;;;9.27;;
33022;SDS011;19390;51.460;5.710;2022-09-29T07:05:18;15.20;;;10.90;;
33022;SDS011;19390;51.460;5.710;2022-09-29T07:07:46;17.35;;;11.38;;
33022;SDS011;19390;51.460;5.710;2022-09-29T07:10:12;16.02;;;10.95;;
33022;SDS011;19390;51.460;5.710;2022-09-29T07:12:39;11.43;;;9.50;;
33022;SDS011;19390;51.460;5.710;2022-09-29T07:15:05;10.18;;;8.40;;
33022;SDS011;19390;51.460;5.710;2022-09-29T07:17:31;12.05;;;9.55;;
33022;SDS011;19390;51.460;5.710;2022-09-29T07:19:57;10.40;;;8.07;;
33022;SDS011;19390;51.460;5.710;2022-09-29T07:22:23;15.50;;;9.82;;
33022;SDS011;19390;51.460;5.710;2022-09-29T07:24:48;11.13;;;8.73;;
33022;SDS011;19390;51.460;5.710;2022-09-29T07:27:17;13.68;;;10.40;;
33022;SDS011;19390;51.460;5.710;2022-09-29T07:29:48;13.07;;;9.70;;
33022;SDS011;19390;51.460;5.710;2022-09-29T07:32:15;13.15;;;9.63;;
33022;SDS011;19390;51.460;5.710;2022-09-29T07:34:41;14.07;;;9.77;;
33022;SDS011;19390;51.460;5.710;2022-09-29T07:37:07;14.55;;;10.27;;
33022;SDS011;19390;51.460;5.710;2022-09-29T07:39:33;14.48;;;9.25;;
33022;SDS011;19390;51.460;5.710;2022-09-29T07:41:58;12.35;;;9.27;;
33022;SDS011;19390;51.460;5.710;2022-09-29T07:44:24;12.02;;;7.65;;
33022;SDS011;19390;51.460;5.710;2022-09-29T07:46:50;17.50;;;8.32;;
33022;SDS011;19390;51.460;5.710;2022-09-29T07:49:16;14.65;;;10.02;;
33022;SDS011;19390;51.460;5.710;2022-09-29T07:51:41;15.38;;;9.80;;
33022;SDS011;19390;51.460;5.710;2022-09-29T07:54:07;12.10;;;7.60;;
33022;SDS011;19390;51.460;5.710;2022-09-29T07:56:33;12.60;;;9.18;;
33022;SDS011;19390;51.460;5.710;2022-09-29T07:58:59;14.25;;;9.88;;
33022;SDS011;19390;51.460;5.710;2022-09-29T08:01:26;12.20;;;9.00;;
33022;SDS011;19390;51.460;5.710;2022-09-29T08:03:53;14.05;;;9.30;;
33022;SDS011;19390;51.460;5.710;2022-09-29T08:06:20;11.95;;;8.98;;
33022;SDS011;19390;51.460;5.710;2022-09-29T08:08:46;12.02;;;8.88;;
33022;SDS011;19390;51.460;5.710;2022-09-29T08:11:13;13.35;;;9.07;;
33022;SDS011;19390;51.460;5.710;2022-09-29T08:13:41;11.48;;;8.98;;
33022;SDS011;19390;51.460;5.710;2022-09-29T08:16:09;12.57;;;8.32;;
33022;SDS011;19390;51.460;5.710;2022-09-29T08:18:36;11.75;;;8.50;;
33022;SDS011;19390;51.460;5.710;2022-09-29T08:21:03;14.75;;;9.45;;
33022;SDS011;19390;51.460;5.710;2022-09-29T08:23:29;13.15;;;8.90;;
33022;SDS011;19390;51.460;5.710;2022-09-29T08:26:00;13.90;;;9.57;;
33022;SDS011;19390;51.460;5.710;2022-09-29T08:28:27;13.73;;;9.10;;
33022;SDS011;19390;51.460;5.710;2022-09-29T08:30:56;13.90;;;9.15;;
33022;SDS011;19390;51.460;5.710;2022-09-29T08:33:25;13.27;;;8.45;;
33022;SDS011;19390;51.460;5.710;2022-09-29T08:35:54;10.98;;;6.70;;
33022;SDS011;19390;51.460;5.710;2022-09-29T08:38:21;10.05;;;6.88;;
33022;SDS011;19390;51.460;5.710;2022-09-29T08:40:47;12.18;;;7.32;;
33022;SDS011;19390;51.460;5.710;2022-09-29T08:45:58;9.18;;;7.25;;
33022;SDS011;19390;51.460;5.710;2022-09-29T08:48:32;8.90;;;5.95;;
33022;SDS011;19390;51.460;5.710;2022-09-29T08:51:03;9.73;;;7.78;;
33022;SDS011;19390;51.460;5.710;2022-09-29T08:53:31;11.82;;;6.25;;
33022;SDS011;19390;51.460;5.710;2022-09-29T08:56:06;9.23;;;6.60;;
33022;SDS011;19390;51.460;5.710;2022-09-29T08:58:37;10.55;;;8.05;;
33022;SDS011;19390;51.460;5.710;2022-09-29T09:03:57;12.55;;;9.13;;
33022;SDS011;19390;51.460;5.710;2022-09-29T09:25:28;8.38;;;6.13;;
33022;SDS011;19390;51.460;5.710;2022-09-29T09:27:59;8.55;;;7.03;;
33022;SDS011;19390;51.460;5.710;2022-09-29T09:31:19;11.07;;;6.78;;
33022;SDS011;19390;51.460;5.710;2022-09-29T09:36:21;10.15;;;7.60;;
33022;SDS011;19390;51.460;5.710;2022-09-29T09:41:30;9.40;;;6.72;;
33022;SDS011;19390;51.460;5.710;2022-09-29T09:47:01;7.72;;;5.70;;
33022;SDS011;19390;51.460;5.710;2022-09-29T09:49:48;5.88;;;5.05;;
33022;SDS011;19390;51.460;5.710;2022-09-29T09:55:04;8.27;;;6.35;;
33022;SDS011;19390;51.460;5.710;2022-09-29T10:00:27;7.10;;;4.88;;
33022;SDS011;19390;51.460;5.710;2022-09-29T10:02:54;7.95;;;5.65;;
33022;SDS011;19390;51.460;5.710;2022-09-29T10:05:23;7.95;;;5.13;;
33022;SDS011;19390;51.460;5.710;2022-09-29T10:07:54;7.97;;;5.47;;
33022;SDS011;19390;51.460;5.710;2022-09-29T10:10:21;7.25;;;5.38;;
33022;SDS011;19390;51.460;5.710;2022-09-29T10:15:28;8.95;;;4.88;;
33022;SDS011;19390;51.460;5.710;2022-09-29T10:17:59;6.90;;;5.63;;
33022;SDS011;19390;51.460;5.710;2022-09-29T10:20:34;9.60;;;6.07;;
33022;SDS011;19390;51.460;5.710;2022-09-29T10:28:21;11.63;;;6.30;;
33022;SDS011;19390;51.460;5.710;2022-09-29T10:30:48;10.65;;;7.38;;
33022;SDS011;19390;51.460;5.710;2022-09-29T10:33:17;9.30;;;6.35;;
33022;SDS011;19390;51.460;5.710;2022-09-29T10:35:46;8.00;;;6.00;;
33022;SDS011;19390;51.460;5.710;2022-09-29T10:38:25;7.40;;;5.72;;
33022;SDS011;19390;51.460;5.710;2022-09-29T10:40:55;8.07;;;6.30;;
33022;SDS011;19390;51.460;5.710;2022-09-29T10:43:34;7.00;;;5.45;;
33022;SDS011;19390;51.460;5.710;2022-09-29T10:52:05;8.73;;;6.47;;
33022;SDS011;19390;51.460;5.710;2022-09-29T10:54:31;10.18;;;5.78;;
33022;SDS011;19390;51.460;5.710;2022-09-29T10:56:59;9.98;;;5.82;;
33022;SDS011;19390;51.460;5.710;2022-09-29T10:59:35;10.32;;;6.57;;
33022;SDS011;19390;51.460;5.710;2022-09-29T11:02:15;8.77;;;5.60;;
33022;SDS011;19390;51.460;5.710;2022-09-29T11:04:51;7.80;;;5.95;;
33022;SDS011;19390;51.460;5.710;2022-09-29T11:07:20;7.65;;;5.50;;
33022;SDS011;19390;51.460;5.710;2022-09-29T11:09:46;6.57;;;4.93;;
33022;SDS011;19390;51.460;5.710;2022-09-29T11:12:25;5.63;;;3.38;;
33022;SDS011;19390;51.460;5.710;2022-09-29T11:14:56;3.88;;;3.35;;
33022;SDS011;19390;51.460;5.710;2022-09-29T11:17:37;7.20;;;3.35;;
33022;SDS011;19390;51.460;5.710;2022-09-29T11:20:04;5.18;;;3.63;;
33022;SDS011;19390;51.460;5.710;2022-09-29T11:25:45;4.10;;;3.15;;
33022;SDS011;19390;51.460;5.710;2022-09-29T11:31:01;5.13;;;3.47;;
33022;SDS011;19390;51.460;5.710;2022-09-29T11:39:51;6.35;;;4.22;;
33022;SDS011;19390;51.460;5.710;2022-09-29T11:45:27;5.22;;;3.80;;
33022;SDS011;19390;51.460;5.710;2022-09-29T11:58:42;6.07;;;4.40;;
33022;SDS011;19390;51.460;5.710;2022-09-29T12:04:08;8.63;;;4.70;;
33022;SDS011;19390;51.460;5.710;2022-09-29T12:07:10;8.77;;;5.05;;
33022;SDS011;19390;51.460;5.710;2022-09-29T12:12:44;8.68;;;4.75;;
33022;SDS011;19390;51.460;5.710;2022-09-29T12:15:22;7.30;;;5.22;;
33022;SDS011;19390;51.460;5.710;2022-09-29T12:17:56;8.82;;;5.70;;
33022;SDS011;19390;51.460;5.710;2022-09-29T12:20:34;6.25;;;4.82;;
33022;SDS011;19390;51.460;5.710;2022-09-29T12:23:06;5.68;;;5.05;;
33022;SDS011;19390;51.460;5.710;2022-09-29T12:25:37;7.78;;;5.22;;
33022;SDS011;19390;51.460;5.710;2022-09-29T12:28:13;9.35;;;5.57;;
33022;SDS011;19390;51.460;5.710;2022-09-29T12:30:47;8.13;;;5.70;;
33022;SDS011;19390;51.460;5.710;2022-09-29T12:33:19;7.45;;;5.88;;
33022;SDS011;19390;51.460;5.710;2022-09-29T12:38:33;6.13;;;4.47;;
33022;SDS011;19390;51.460;5.710;2022-09-29T12:41:13;7.75;;;4.18;;
33022;SDS011;19390;51.460;5.710;2022-09-29T12:43:50;7.57;;;4.20;;
33022;SDS011;19390;51.460;5.710;2022-09-29T12:46:30;6.00;;;3.90;;
33022;SDS011;19390;51.460;5.710;2022-09-29T12:51:55;6.13;;;4.18;;
33022;SDS011;19390;51.460;5.710;2022-09-29T12:54:39;4.38;;;3.97;;
33022;SDS011;19390;51.460;5.710;2022-09-29T12:57:15;6.38;;;3.70;;
33022;SDS011;19390;51.460;5.710;2022-09-29T13:16:34;5.28;;;2.65;;
33022;SDS011;19390;51.460;5.710;2022-09-29T13:24:50;6.43;;;2.75;;
33022;SDS011;19390;51.460;5.710;2022-09-29T13:27:43;4.70;;;2.67;;
33022;SDS011;19390;51.460;5.710;2022-09-29T13:32:38;4.45;;;3.38;;
33022;SDS011;19390;51.460;5.710;2022-09-29T13:35:28;7.43;;;3.72;;
33022;SDS011;19390;51.460;5.710;2022-09-29T13:38:02;7.60;;;3.90;;
33022;SDS011;19390;51.460;5.710;2022-09-29T13:40:29;6.93;;;4.45;;
33022;SDS011;19390;51.460;5.710;2022-09-29T13:42:56;8.00;;;4.78;;
33022;SDS011;19390;51.460;5.710;2022-09-29T13:47:50;8.57;;;5.43;;
33022;SDS011;19390;51.460;5.710;2022-09-29T13:50:40;8.18;;;5.35;;
33022;SDS011;19390;51.460;5.710;2022-09-29T14:01:33;9.57;;;5.60;;
33022;SDS011;19390;51.460;5.710;2022-09-29T14:06:58;5.75;;;4.07;;
33022;SDS011;19390;51.460;5.710;2022-09-29T14:09:30;7.35;;;4.55;;
33022;SDS011;19390;51.460;5.710;2022-09-29T14:27:45;7.97;;;4.05;;
33022;SDS011;19390;51.460;5.710;2022-09-29T14:33:00;7.30;;;4.25;;
33022;SDS011;19390;51.460;5.710;2022-09-29T14:35:39;6.03;;;3.78;;
33022;SDS011;19390;51.460;5.710;2022-09-29T14:38:16;5.65;;;3.70;;
33022;SDS011;19390;51.460;5.710;2022-09-29T14:40:55;6.05;;;4.22;;
33022;SDS011;19390;51.460;5.710;2022-09-29T14:43:35;6.28;;;5.38;;
33022;SDS011;19390;51.460;5.710;2022-09-29T14:46:14;5.88;;;4.65;;
33022;SDS011;19390;51.460;5.710;2022-09-29T16:06:12;9.85;;;5.45;;
33022;SDS011;19390;51.460;5.710;2022-09-29T16:08:53;8.35;;;5.30;;
33022;SDS011;19390;51.460;5.710;2022-09-29T16:11:26;7.95;;;4.93;;
33022;SDS011;19390;51.460;5.710;2022-09-29T16:14:06;11.27;;;5.25;;
33022;SDS011;19390;51.460;5.710;2022-09-29T16:16:43;8.80;;;5.07;;
33022;SDS011;19390;51.460;5.710;2022-09-29T16:19:15;10.52;;;5.20;;
33022;SDS011;19390;51.460;5.710;2022-09-29T16:21:56;9.02;;;5.45;;
33022;SDS011;19390;51.460;5.710;2022-09-29T16:24:34;8.68;;;5.10;;
33022;SDS011;19390;51.460;5.710;2022-09-29T16:27:00;10.93;;;5.43;;
33022;SDS011;19390;51.460;5.710;2022-09-29T16:31:54;9.35;;;5.60;;
33022;SDS011;19390;51.460;5.710;2022-09-29T17:04:24;15.05;;;6.53;;
33022;SDS011;19390;51.460;5.710;2022-09-29T17:06:50;11.18;;;5.50;;
33022;SDS011;19390;51.460;5.710;2022-09-29T17:09:19;9.38;;;5.32;;
33022;SDS011;19390;51.460;5.710;2022-09-29T17:14:25;11.75;;;5.72;;
33022;SDS011;19390;51.460;5.710;2022-09-29T17:16:54;10.02;;;6.10;;
33022;SDS011;19390;51.460;5.710;2022-09-29T17:19:20;16.10;;;6.93;;
33022;SDS011;19390;51.460;5.710;2022-09-29T17:21:46;9.23;;;6.35;;
33022;SDS011;19390;51.460;5.710;2022-09-29T17:24:12;15.05;;;7.05;;
33022;SDS011;19390;51.460;5.710;2022-09-29T17:26:39;10.30;;;6.45;;
33022;SDS011;19390;51.460;5.710;2022-09-29T17:29:25;12.00;;;7.10;;
33022;SDS011;19390;51.460;5.710;2022-09-29T17:31:51;18.05;;;8.25;;
33022;SDS011;19390;51.460;5.710;2022-09-29T17:34:17;15.90;;;8.25;;
33022;SDS011;19390;51.460;5.710;2022-09-29T17:36:50;13.10;;;7.05;;
33022;SDS011;19390;51.460;5.710;2022-09-29T17:39:16;11.05;;;7.20;;
33022;SDS011;19390;51.460;5.710;2022-09-29T17:41:42;17.48;;;8.82;;
33022;SDS011;19390;51.460;5.710;2022-09-29T17:44:07;16.70;;;10.20;;
33022;SDS011;19390;51.460;5.710;2022-09-29T17:46:35;17.15;;;10.60;;
33022;SDS011;19390;51.460;5.710;2022-09-29T17:49:02;20.00;;;11.75;;
33022;SDS011;19390;51.460;5.710;2022-09-29T17:51:28;20.75;;;11.35;;
33022;SDS011;19390;51.460;5.710;2022-09-29T17:53:53;21.23;;;13.88;;
33022;SDS011;19390;51.460;5.710;2022-09-29T17:56:20;18.45;;;11.98;;
33022;SDS011;19390;51.460;5.710;2022-09-29T17:58:51;19.92;;;12.77;;
33022;SDS011;19390;51.460;5.710;2022-09-29T18:01:19;16.40;;;11.23;;
33022;SDS011;19390;51.460;5.710;2022-09-29T18:03:47;17.90;;;11.25;;
33022;SDS011;19390;51.460;5.710;2022-09-29T18:06:18;16.67;;;8.98;;
33022;SDS011;19390;51.460;5.710;2022-09-29T18:08:46;16.30;;;9.52;;
33022;SDS011;19390;51.460;5.710;2022-09-29T18:11:15;20.30;;;9.00;;
33022;SDS011;19390;51.460;5.710;2022-09-29T18:13:42;13.20;;;8.38;;
33022;SDS011;19390;51.460;5.710;2022-09-29T18:16:12;12.65;;;7.55;;
33022;SDS011;19390;51.460;5.710;2022-09-29T18:18:40;12.32;;;8.30;;
33022;SDS011;19390;51.460;5.710;2022-09-29T18:21:06;13.82;;;9.30;;
33022;SDS011;19390;51.460;5.710;2022-09-29T18:23:32;14.40;;;8.20;;
33022;SDS011;19390;51.460;5.710;2022-09-29T18:25:59;12.55;;;8.27;;
33022;SDS011;19390;51.460;5.710;2022-09-29T18:28:25;13.68;;;8.40;;
33022;SDS011;19390;51.460;5.710;2022-09-29T18:30:53;14.57;;;9.10;;
33022;SDS011;19390;51.460;5.710;2022-09-29T18:33:29;13.07;;;8.90;;
33022;SDS011;19390;51.460;5.710;2022-09-29T18:35:58;13.40;;;8.45;;
33022;SDS011;19390;51.460;5.710;2022-09-29T18:38:27;15.10;;;8.95;;
33022;SDS011;19390;51.460;5.710;2022-09-29T18:40:53;15.95;;;8.75;;
33022;SDS011;19390;51.460;5.710;2022-09-29T18:43:20;15.23;;;9.15;;
33022;SDS011;19390;51.460;5.710;2022-09-29T18:45:50;13.10;;;9.15;;
33022;SDS011;19390;51.460;5.710;2022-09-29T18:48:16;17.90;;;9.30;;
33022;SDS011;19390;51.460;5.710;2022-09-29T18:50:43;20.63;;;10.27;;
33022;SDS011;19390;51.460;5.710;2022-09-29T18:53:10;18.48;;;10.95;;
33022;SDS011;19390;51.460;5.710;2022-09-29T18:55:38;18.27;;;10.45;;
33022;SDS011;19390;51.460;5.710;2022-09-29T18:58:05;19.55;;;10.30;;
33022;SDS011;19390;51.460;5.710;2022-09-29T19:00:34;19.92;;;10.45;;
33022;SDS011;19390;51.460;5.710;2022-09-29T19:03:04;21.02;;;11.98;;
33022;SDS011;19390;51.460;5.710;2022-09-29T19:05:32;16.83;;;10.52;;
33022;SDS011;19390;51.460;5.710;2022-09-29T19:08:00;21.60;;;10.13;;
33022;SDS011;19390;51.460;5.710;2022-09-29T19:10:28;15.48;;;9.65;;
33022;SDS011;19390;51.460;5.710;2022-09-29T19:12:57;16.33;;;9.00;;
33022;SDS011;19390;51.460;5.710;2022-09-29T19:15:28;15.98;;;10.18;;
33022;SDS011;19390;51.460;5.710;2022-09-29T19:17:55;13.20;;;9.50;;
33022;SDS011;19390;51.460;5.710;2022-09-29T19:20:21;15.52;;;10.02;;
33022;SDS011;19390;51.460;5.710;2022-09-29T19:22:50;15.48;;;8.90;;
33022;SDS011;19390;51.460;5.710;2022-09-29T19:25:17;15.25;;;9.27;;
33022;SDS011;19390;51.460;5.710;2022-09-29T19:27:45;13.15;;;9.13;;
33022;SDS011;19390;51.460;5.710;2022-09-29T19:30:12;13.30;;;9.13;;
33022;SDS011;19390;51.460;5.710;2022-09-29T19:32:41;14.32;;;9.07;;
33022;SDS011;19390;51.460;5.710;2022-09-29T19:35:07;15.35;;;10.32;;
33022;SDS011;19390;51.460;5.710;2022-09-29T19:37:34;13.68;;;10.13;;
33022;SDS011;19390;51.460;5.710;2022-09-29T19:40:00;15.10;;;9.82;;
33022;SDS011;19390;51.460;5.710;2022-09-29T19:42:26;20.55;;;11.75;;
33022;SDS011;19390;51.460;5.710;2022-09-29T19:44:54;17.58;;;10.32;;
33022;SDS011;19390;51.460;5.710;2022-09-29T19:47:19;15.27;;;10.25;;
33022;SDS011;19390;51.460;5.710;2022-09-29T19:49:45;18.10;;;9.98;;
33022;SDS011;19390;51.460;5.710;2022-09-29T19:52:11;15.32;;;9.63;;
33022;SDS011;19390;51.460;5.710;2022-09-29T19:54:37;17.48;;;8.55;;
33022;SDS011;19390;51.460;5.710;2022-09-29T19:57:13;15.07;;;10.10;;
33022;SDS011;19390;51.460;5.710;2022-09-29T19:59:40;14.88;;;10.35;;
33022;SDS011;19390;51.460;5.710;2022-09-29T20:02:11;14.82;;;9.95;;
33022;SDS011;19390;51.460;5.710;2022-09-29T20:04:38;18.35;;;11.30;;
33022;SDS011;19390;51.460;5.710;2022-09-29T20:07:06;15.20;;;11.50;;
33022;SDS011;19390;51.460;5.710;2022-09-29T20:09:32;17.83;;;11.35;;
33022;SDS011;19390;51.460;5.710;2022-09-29T20:11:58;17.15;;;12.65;;
33022;SDS011;19390;51.460;5.710;2022-09-29T20:14:24;23.30;;;13.43;;
33022;SDS011;19390;51.460;5.710;2022-09-29T20:16:52;22.38;;;14.68;;
33022;SDS011;19390;51.460;5.710;2022-09-29T20:19:20;17.70;;;12.65;;
33022;SDS011;19390;51.460;5.710;2022-09-29T20:21:49;23.08;;;13.57;;
33022;SDS011;19390;51.460;5.710;2022-09-29T20:24:17;21.65;;;13.35;;
33022;SDS011;19390;51.460;5.710;2022-09-29T20:26:45;15.93;;;10.35;;
33022;SDS011;19390;51.460;5.710;2022-09-29T20:29:12;18.50;;;11.93;;
33022;SDS011;19390;51.460;5.710;2022-09-29T20:31:39;13.80;;;9.82;;
33022;SDS011;19390;51.460;5.710;2022-09-29T20:34:05;16.85;;;10.57;;
33022;SDS011;19390;51.460;5.710;2022-09-29T20:36:32;17.75;;;10.93;;
33022;SDS011;19390;51.460;5.710;2022-09-29T20:38:59;15.05;;;10.15;;
33022;SDS011;19390;51.460;5.710;2022-09-29T20:41:25;16.00;;;10.02;;
33022;SDS011;19390;51.460;5.710;2022-09-29T20:43:53;17.42;;;9.40;;
33022;SDS011;19390;51.460;5.710;2022-09-29T20:46:20;17.50;;;10.38;;
33022;SDS011;19390;51.460;5.710;2022-09-29T20:48:50;17.27;;;11.05;;
33022;SDS011;19390;51.460;5.710;2022-09-29T20:53:58;15.18;;;9.43;;
33022;SDS011;19390;51.460;5.710;2022-09-29T20:56:27;20.30;;;11.23;;
33022;SDS011;19390;51.460;5.710;2022-09-29T20:59:00;18.33;;;12.60;;
33022;SDS011;19390;51.460;5.710;2022-09-29T21:01:29;20.05;;;11.02;;
33022;SDS011;19390;51.460;5.710;2022-09-29T21:04:00;18.77;;;9.20;;
33022;SDS011;19390;51.460;5.710;2022-09-29T21:06:31;20.23;;;10.13;;
33022;SDS011;19390;51.460;5.710;2022-09-29T21:08:59;19.27;;;9.80;;
33022;SDS011;19390;51.460;5.710;2022-09-29T21:11:25;16.85;;;10.48;;
33022;SDS011;19390;51.460;5.710;2022-09-29T21:13:52;22.13;;;10.55;;